sensor_id;sensor_type;location;lat;lon;timestamp;P1;durP1;ratioP1;P2;durP2;ratioP2
45011;SDS011;63444;48.148;11.542;2023-06-19T00:00:09;6.88;;;6.28;;
45011;SDS011;63444;48.148;11.542;2023-06-19T00:02:39;7.15;;;6.45;;
45011;SDS011;63444;48.148;11.542;2023-06-19T00:05:05;7.43;;;6.72;;
45011;SDS011;63444;48.148;11.542;2023-06-19T00:07:32;6.72;;;6.13;;
45011;SDS011;63444;48.148;11.542;2023-06-19T00:09:58;7.85;;;6.15;;
45011;SDS011;63444;48.148;11.542;2023-06-19T00:12:24;6.95;;;6.25;;
45011;SDS011;63444;48.148;11.542;2023-06-19T00:14:49;7.43;;;6.60;;
45011;SDS011;63444;48.148;11.542;2023-06-19T00:17:15;7.03;;;6.32;;
45011;SDS011;63444;48.148;11.542;2023-06-19T00:19:41;7.53;;;6.75;;
45011;SDS011;63444;48.148;11.542;2023-06-19T00:22:08;9.50;;;6.57;;
45011;SDS011;63444;48.148;11.542;2023-06-19T00:24:33;7.15;;;6.45;;
45011;SDS011;63444;48.148;11.542;2023-06-19T00:26:59;6.88;;;6.25;;
45011;SDS011;63444;48.148;11.542;2023-06-19T00:29:31;7.40;;;6.70;;
45011;SDS011;63444;48.148;11.542;2023-06-19T00:31:57;7.05;;;6.32;;
45011;SDS011;63444;48.148;11.542;2023-06-19T00:34:23;7.70;;;6.60;;
45011;SDS011;63444;48.148;11.542;2023-06-19T00:36:49;8.27;;;6.35;;
45011;SDS011;63444;48.148;11.542;2023-06-19T00:39:16;8.32;;;6.65;;
45011;SDS011;63444;48.148;11.542;2023-06-19T00:41:42;6.85;;;6.22;;
45011;SDS011;63444;48.148;11.542;2023-06-19T00:44:08;7.55;;;6.85;;
45011;SDS011;63444;48.148;11.542;2023-06-19T00:46:35;7.63;;;6.57;;
45011;SDS011;63444;48.148;11.542;2023-06-19T00:49:02;7.00;;;6.30;;
45011;SDS011;63444;48.148;11.542;2023-06-19T00:51:28;7.10;;;6.30;;
45011;SDS011;63444;48.148;11.542;2023-06-19T00:53:54;6.90;;;6.30;;
45011;SDS011;63444;48.148;11.542;2023-06-19T00:56:20;6.97;;;6.47;;
45011;SDS011;63444;48.148;11.542;2023-06-19T00:58:45;7.43;;;6.72;;
45011;SDS011;63444;48.148;11.542;2023-06-19T01:01:11;7.10;;;6.40;;
45011;SDS011;63444;48.148;11.542;2023-06-19T01:03:37;6.90;;;5.78;;
45011;SDS011;63444;48.148;11.542;2023-06-19T01:06:02;6.50;;;5.90;;
45011;SDS011;63444;48.148;11.542;2023-06-19T01:08:46;7.10;;;6.40;;
45011;SDS011;63444;48.148;11.542;2023-06-19T01:11:21;6.78;;;6.18;;
45011;SDS011;63444;48.148;11.542;2023-06-19T01:16:25;7.13;;;6.47;;
45011;SDS011;63444;48.148;11.542;2023-06-19T01:18:52;7.40;;;6.68;;
45011;SDS011;63444;48.148;11.542;2023-06-19T01:21:18;6.38;;;5.78;;
45011;SDS011;63444;48.148;11.542;2023-06-19T01:23:45;6.82;;;6.20;;
45011;SDS011;63444;48.148;11.542;2023-06-19T01:26:12;6.95;;;6.25;;
45011;SDS011;63444;48.148;11.542;2023-06-19T01:28:41;7.00;;;6.40;;
45011;SDS011;63444;48.148;11.542;2023-06-19T01:31:50;6.95;;;6.32;;
45011;SDS011;63444;48.148;11.542;2023-06-19T01:34:00;7.05;;;6.40;;
45011;SDS011;63444;48.148;11.542;2023-06-19T01:36:27;7.03;;;6.00;;
45011;SDS011;63444;48.148;11.542;2023-06-19T01:38:54;6.72;;;6.13;;
45011;SDS011;63444;48.148;11.542;2023-06-19T01:41:23;6.50;;;5.90;;
45011;SDS011;63444;48.148;11.542;2023-06-19T01:43:50;7.38;;;6.60;;
45011;SDS011;63444;48.148;11.542;2023-06-19T01:46:16;7.20;;;6.53;;
45011;SDS011;63444;48.148;11.542;2023-06-19T01:48:42;7.55;;;6.60;;
45011;SDS011;63444;48.148;11.542;2023-06-19T01:51:07;6.30;;;5.75;;
45011;SDS011;63444;48.148;11.542;2023-06-19T01:53:33;7.22;;;6.53;;
45011;SDS011;63444;48.148;11.542;2023-06-19T01:55:59;9.05;;;5.85;;
45011;SDS011;63444;48.148;11.542;2023-06-19T01:58:25;9.27;;;6.55;;
45011;SDS011;63444;48.148;11.542;2023-06-19T02:00:51;7.28;;;6.57;;
45011;SDS011;63444;48.148;11.542;2023-06-19T02:03:17;7.22;;;6.53;;
45011;SDS011;63444;48.148;11.542;2023-06-19T02:05:42;6.85;;;6.25;;
45011;SDS011;63444;48.148;11.542;2023-06-19T02:08:08;7.80;;;6.18;;
45011;SDS011;63444;48.148;11.542;2023-06-19T02:10:33;7.22;;;6.53;;
45011;SDS011;63444;48.148;11.542;2023-06-19T02:12:59;8.68;;;6.75;;
45011;SDS011;63444;48.148;11.542;2023-06-19T02:15:25;7.00;;;6.40;;
45011;SDS011;63444;48.148;11.542;2023-06-19T02:17:51;6.70;;;6.07;;
45011;SDS011;63444;48.148;11.542;2023-06-19T02:20:20;7.32;;;6.68;;
45011;SDS011;63444;48.148;11.542;2023-06-19T02:22:49;7.40;;;6.07;;
45011;SDS011;63444;48.148;11.542;2023-06-19T02:25:15;6.72;;;6.03;;
45011;SDS011;63444;48.148;11.542;2023-06-19T02:27:41;7.20;;;6.53;;
45011;SDS011;63444;48.148;11.542;2023-06-19T02:30:07;7.85;;;7.05;;
45011;SDS011;63444;48.148;11.542;2023-06-19T02:32:32;7.55;;;6.43;;
45011;SDS011;63444;48.148;11.542;2023-06-19T02:34:58;7.45;;;6.75;;
45011;SDS011;63444;48.148;11.542;2023-06-19T02:37:24;7.38;;;6.68;;
45011;SDS011;63444;48.148;11.542;2023-06-19T02:39:49;7.68;;;6.97;;
45011;SDS011;63444;48.148;11.542;2023-06-19T02:42:15;7.85;;;6.65;;
45011;SDS011;63444;48.148;11.542;2023-06-19T02:44:40;8.05;;;6.55;;
45011;SDS011;63444;48.148;11.542;2023-06-19T02:47:08;6.78;;;6.07;;
45011;SDS011;63444;48.148;11.542;2023-06-19T02:49:33;6.63;;;6.03;;
45011;SDS011;63444;48.148;11.542;2023-06-19T02:51:59;7.07;;;6.38;;
45011;SDS011;63444;48.148;11.542;2023-06-19T02:54:25;6.90;;;6.28;;
45011;SDS011;63444;48.148;11.542;2023-06-19T02:56:50;6.75;;;6.15;;
45011;SDS011;63444;48.148;11.542;2023-06-19T02:59:16;8.23;;;6.55;;
45011;SDS011;63444;48.148;11.542;2023-06-19T03:01:41;7.63;;;6.85;;
45011;SDS011;63444;48.148;11.542;2023-06-19T03:04:07;7.65;;;6.88;;
45011;SDS011;63444;48.148;11.542;2023-06-19T03:06:33;7.78;;;6.97;;
45011;SDS011;63444;48.148;11.542;2023-06-19T03:09:04;7.57;;;6.60;;
45011;SDS011;63444;48.148;11.542;2023-06-19T03:11:30;7.38;;;6.68;;
45011;SDS011;63444;48.148;11.542;2023-06-19T03:13:55;7.60;;;6.80;;
45011;SDS011;63444;48.148;11.542;2023-06-19T03:16:21;9.50;;;7.60;;
45011;SDS011;63444;48.148;11.542;2023-06-19T03:18:47;7.28;;;6.57;;
45011;SDS011;63444;48.148;11.542;2023-06-19T03:21:13;7.65;;;6.95;;
45011;SDS011;63444;48.148;11.542;2023-06-19T03:23:39;8.35;;;6.55;;
45011;SDS011;63444;48.148;11.542;2023-06-19T03:26:08;6.97;;;6.25;;
45011;SDS011;63444;48.148;11.542;2023-06-19T03:28:35;7.88;;;6.30;;
45011;SDS011;63444;48.148;11.542;2023-06-19T03:31:01;7.30;;;6.60;;
45011;SDS011;63444;48.148;11.542;2023-06-19T03:33:27;7.57;;;6.80;;
45011;SDS011;63444;48.148;11.542;2023-06-19T03:35:53;7.50;;;6.80;;
45011;SDS011;63444;48.148;11.542;2023-06-19T03:38:19;7.43;;;6.72;;
45011;SDS011;63444;48.148;11.542;2023-06-19T03:40:45;7.57;;;6.88;;
45011;SDS011;63444;48.148;11.542;2023-06-19T03:43:11;7.45;;;6.75;;
45011;SDS011;63444;48.148;11.542;2023-06-19T03:45:36;11.07;;;7.00;;
45011;SDS011;63444;48.148;11.542;2023-06-19T03:48:02;7.07;;;6.40;;
45011;SDS011;63444;48.148;11.542;2023-06-19T03:50:28;7.38;;;6.68;;
45011;SDS011;63444;48.148;11.542;2023-06-19T03:52:53;7.70;;;6.88;;
45011;SDS011;63444;48.148;11.542;2023-06-19T03:55:19;7.40;;;6.70;;
45011;SDS011;63444;48.148;11.542;2023-06-19T03:57:45;8.63;;;7.47;;
45011;SDS011;63444;48.148;11.542;2023-06-19T04:00:10;7.25;;;6.47;;
45011;SDS011;63444;48.148;11.542;2023-06-19T04:02:38;7.55;;;6.85;;
45011;SDS011;63444;48.148;11.542;2023-06-19T04:05:04;7.22;;;6.53;;
45011;SDS011;63444;48.148;11.542;2023-06-19T04:07:30;7.63;;;6.93;;
45011;SDS011;63444;48.148;11.542;2023-06-19T04:09:56;8.55;;;6.65;;
45011;SDS011;63444;48.148;11.542;2023-06-19T04:12:22;7.57;;;6.75;;
45011;SDS011;63444;48.148;11.542;2023-06-19T04:14:48;7.65;;;6.82;;
45011;SDS011;63444;48.148;11.542;2023-06-19T04:17:14;7.65;;;6.95;;
45011;SDS011;63444;48.148;11.542;2023-06-19T04:19:40;7.50;;;6.72;;
45011;SDS011;63444;48.148;11.542;2023-06-19T04:22:06;7.50;;;6.75;;
45011;SDS011;63444;48.148;11.542;2023-06-19T04:24:31;6.72;;;6.03;;
45011;SDS011;63444;48.148;11.542;2023-06-19T04:26:57;6.82;;;6.22;;
45011;SDS011;63444;48.148;11.542;2023-06-19T04:29:22;7.70;;;7.00;;
45011;SDS011;63444;48.148;11.542;2023-06-19T04:31:48;8.25;;;6.38;;
45011;SDS011;63444;48.148;11.542;2023-06-19T04:34:15;7.50;;;6.70;;
45011;SDS011;63444;48.148;11.542;2023-06-19T04:36:42;6.63;;;6.03;;
45011;SDS011;63444;48.148;11.542;2023-06-19T04:39:08;7.10;;;6.40;;
45011;SDS011;63444;48.148;11.542;2023-06-19T04:41:34;6.80;;;6.20;;
45011;SDS011;63444;48.148;11.542;2023-06-19T04:44:06;7.25;;;6.63;;
45011;SDS011;63444;48.148;11.542;2023-06-19T04:46:32;7.38;;;6.50;;
45011;SDS011;63444;48.148;11.542;2023-06-19T04:48:58;8.38;;;6.47;;
45011;SDS011;63444;48.148;11.542;2023-06-19T04:51:24;7.13;;;6.40;;
45011;SDS011;63444;48.148;11.542;2023-06-19T04:53:51;7.28;;;6.57;;
45011;SDS011;63444;48.148;11.542;2023-06-19T04:56:16;7.28;;;6.57;;
45011;SDS011;63444;48.148;11.542;2023-06-19T04:58:42;7.15;;;6.45;;
45011;SDS011;63444;48.148;11.542;2023-06-19T05:01:12;7.55;;;6.72;;
45011;SDS011;63444;48.148;11.542;2023-06-19T05:03:38;7.60;;;6.88;;
45011;SDS011;63444;48.148;11.542;2023-06-19T05:06:04;7.07;;;6.45;;
45011;SDS011;63444;48.148;11.542;2023-06-19T05:08:30;7.40;;;6.70;;
45011;SDS011;63444;48.148;11.542;2023-06-19T05:10:56;8.10;;;7.30;;
45011;SDS011;63444;48.148;11.542;2023-06-19T05:13:22;10.07;;;7.18;;
45011;SDS011;63444;48.148;11.542;2023-06-19T05:15:48;7.45;;;6.75;;
45011;SDS011;63444;48.148;11.542;2023-06-19T05:18:15;7.75;;;7.00;;
45011;SDS011;63444;48.148;11.542;2023-06-19T05:20:41;7.13;;;6.45;;
45011;SDS011;63444;48.148;11.542;2023-06-19T05:23:06;9.43;;;7.00;;
45011;SDS011;63444;48.148;11.542;2023-06-19T05:25:32;10.45;;;6.82;;
45011;SDS011;63444;48.148;11.542;2023-06-19T05:27:57;7.60;;;6.88;;
45011;SDS011;63444;48.148;11.542;2023-06-19T05:30:23;6.85;;;6.25;;
45011;SDS011;63444;48.148;11.542;2023-06-19T05:32:49;7.25;;;6.03;;
45011;SDS011;63444;48.148;11.542;2023-06-19T05:35:14;7.05;;;6.32;;
45011;SDS011;63444;48.148;11.542;2023-06-19T05:37:40;8.57;;;6.70;;
45011;SDS011;63444;48.148;11.542;2023-06-19T05:40:08;7.20;;;6.43;;
45011;SDS011;63444;48.148;11.542;2023-06-19T05:42:37;8.07;;;6.78;;
45011;SDS011;63444;48.148;11.542;2023-06-19T05:45:03;6.35;;;5.82;;
45011;SDS011;63444;48.148;11.542;2023-06-19T05:47:30;7.63;;;6.28;;
45011;SDS011;63444;48.148;11.542;2023-06-19T05:49:56;6.45;;;5.85;;
45011;SDS011;63444;48.148;11.542;2023-06-19T05:52:22;9.68;;;5.80;;
45011;SDS011;63444;48.148;11.542;2023-06-19T05:54:48;7.03;;;6.15;;
45011;SDS011;63444;48.148;11.542;2023-06-19T05:57:14;6.85;;;5.82;;
45011;SDS011;63444;48.148;11.542;2023-06-19T05:59:41;17.10;;;5.95;;
45011;SDS011;63444;48.148;11.542;2023-06-19T06:02:07;8.93;;;6.32;;
45011;SDS011;63444;48.148;11.542;2023-06-19T06:04:33;16.58;;;6.55;;
45011;SDS011;63444;48.148;11.542;2023-06-19T06:06:59;8.73;;;6.03;;
45011;SDS011;63444;48.148;11.542;2023-06-19T06:09:25;6.57;;;4.93;;
45011;SDS011;63444;48.148;11.542;2023-06-19T06:11:51;6.40;;;5.43;;
45011;SDS011;63444;48.148;11.542;2023-06-19T06:14:17;5.68;;;5.07;;
45011;SDS011;63444;48.148;11.542;2023-06-19T06:16:43;5.63;;;5.13;;
45011;SDS011;63444;48.148;11.542;2023-06-19T06:19:09;8.98;;;5.70;;
45011;SDS011;63444;48.148;11.542;2023-06-19T06:21:34;6.72;;;5.13;;
45011;SDS011;63444;48.148;11.542;2023-06-19T06:24:00;5.95;;;5.38;;
45011;SDS011;63444;48.148;11.542;2023-06-19T06:26:25;5.72;;;5.22;;
45011;SDS011;63444;48.148;11.542;2023-06-19T06:28:52;5.38;;;4.88;;
45011;SDS011;63444;48.148;11.542;2023-06-19T06:31:18;5.55;;;5.05;;
45011;SDS011;63444;48.148;11.542;2023-06-19T06:33:44;7.45;;;5.40;;
45011;SDS011;63444;48.148;11.542;2023-06-19T06:36:10;9.00;;;5.28;;
45011;SDS011;63444;48.148;11.542;2023-06-19T06:38:35;5.47;;;4.97;;
45011;SDS011;63444;48.148;11.542;2023-06-19T06:41:01;5.88;;;5.22;;
45011;SDS011;63444;48.148;11.542;2023-06-19T06:43:27;6.13;;;5.38;;
45011;SDS011;63444;48.148;11.542;2023-06-19T06:45:53;6.57;;;4.93;;
45011;SDS011;63444;48.148;11.542;2023-06-19T06:48:18;6.30;;;4.78;;
45011;SDS011;63444;48.148;11.542;2023-06-19T06:50:44;5.82;;;5.20;;
45011;SDS011;63444;48.148;11.542;2023-06-19T06:53:09;5.80;;;5.20;;
45011;SDS011;63444;48.148;11.542;2023-06-19T06:55:35;5.38;;;4.82;;
45011;SDS011;63444;48.148;11.542;2023-06-19T06:58:01;5.60;;;5.00;;
45011;SDS011;63444;48.148;11.542;2023-06-19T07:00:26;9.35;;;4.78;;
45011;SDS011;63444;48.148;11.542;2023-06-19T07:02:52;5.90;;;5.30;;
45011;SDS011;63444;48.148;11.542;2023-06-19T07:05:18;7.43;;;4.70;;
45011;SDS011;63444;48.148;11.542;2023-06-19T07:07:44;5.22;;;4.65;;
45011;SDS011;63444;48.148;11.542;2023-06-19T07:10:09;5.28;;;4.88;;
45011;SDS011;63444;48.148;11.542;2023-06-19T07:12:35;5.03;;;4.45;;
45011;SDS011;63444;48.148;11.542;2023-06-19T07:15:08;5.93;;;4.60;;
45011;SDS011;63444;48.148;11.542;2023-06-19T07:17:34;5.53;;;4.40;;
45011;SDS011;63444;48.148;11.542;2023-06-19T07:19:59;6.07;;;4.80;;
45011;SDS011;63444;48.148;11.542;2023-06-19T07:22:25;7.00;;;4.80;;
45011;SDS011;63444;48.148;11.542;2023-06-19T07:24:51;5.05;;;4.53;;
45011;SDS011;63444;48.148;11.542;2023-06-19T07:27:16;8.40;;;4.40;;
45011;SDS011;63444;48.148;11.542;2023-06-19T07:29:43;5.40;;;4.60;;
45011;SDS011;63444;48.148;11.542;2023-06-19T07:32:09;5.10;;;4.40;;
45011;SDS011;63444;48.148;11.542;2023-06-19T07:34:35;7.18;;;4.45;;
45011;SDS011;63444;48.148;11.542;2023-06-19T07:37:01;10.55;;;4.30;;
45011;SDS011;63444;48.148;11.542;2023-06-19T07:39:26;4.65;;;4.25;;
45011;SDS011;63444;48.148;11.542;2023-06-19T07:41:52;4.82;;;4.38;;
45011;SDS011;63444;48.148;11.542;2023-06-19T07:44:17;5.47;;;4.25;;
45011;SDS011;63444;48.148;11.542;2023-06-19T07:46:45;4.68;;;3.83;;
45011;SDS011;63444;48.148;11.542;2023-06-19T07:49:11;4.53;;;3.58;;
45011;SDS011;63444;48.148;11.542;2023-06-19T07:51:37;7.30;;;4.00;;
45011;SDS011;63444;48.148;11.542;2023-06-19T07:54:02;8.27;;;4.15;;
45011;SDS011;63444;48.148;11.542;2023-06-19T07:56:28;4.55;;;3.80;;
45011;SDS011;63444;48.148;11.542;2023-06-19T07:58:54;4.45;;;3.88;;
45011;SDS011;63444;48.148;11.542;2023-06-19T08:01:19;4.53;;;3.50;;
45011;SDS011;63444;48.148;11.542;2023-06-19T08:03:45;3.78;;;3.47;;
45011;SDS011;63444;48.148;11.542;2023-06-19T08:06:11;4.15;;;3.20;;
45011;SDS011;63444;48.148;11.542;2023-06-19T08:08:36;4.35;;;3.25;;
45011;SDS011;63444;48.148;11.542;2023-06-19T08:11:02;4.28;;;3.88;;
45011;SDS011;63444;48.148;11.542;2023-06-19T08:13:28;4.47;;;3.70;;
45011;SDS011;63444;48.148;11.542;2023-06-19T08:15:53;6.28;;;3.25;;
45011;SDS011;63444;48.148;11.542;2023-06-19T08:18:19;4.18;;;3.85;;
45011;SDS011;63444;48.148;11.542;2023-06-19T08:20:44;3.67;;;3.25;;
45011;SDS011;63444;48.148;11.542;2023-06-19T08:23:10;3.53;;;3.22;;
45011;SDS011;63444;48.148;11.542;2023-06-19T08:25:35;4.15;;;3.72;;
45011;SDS011;63444;48.148;11.542;2023-06-19T08:28:01;7.13;;;3.92;;
45011;SDS011;63444;48.148;11.542;2023-06-19T08:30:27;4.47;;;3.42;;
45011;SDS011;63444;48.148;11.542;2023-06-19T08:32:52;3.92;;;3.17;;
45011;SDS011;63444;48.148;11.542;2023-06-19T08:35:18;3.20;;;3.00;;
45011;SDS011;63444;48.148;11.542;2023-06-19T08:37:43;5.07;;;3.45;;
45011;SDS011;63444;48.148;11.542;2023-06-19T08:40:10;3.65;;;3.35;;
45011;SDS011;63444;48.148;11.542;2023-06-19T08:42:37;3.60;;;3.30;;
45011;SDS011;63444;48.148;11.542;2023-06-19T08:45:04;3.90;;;2.95;;
45011;SDS011;63444;48.148;11.542;2023-06-19T08:47:31;7.18;;;3.40;;
45011;SDS011;63444;48.148;11.542;2023-06-19T08:49:58;3.47;;;2.80;;
45011;SDS011;63444;48.148;11.542;2023-06-19T08:52:24;6.32;;;3.40;;
45011;SDS011;63444;48.148;11.542;2023-06-19T08:54:50;4.95;;;3.33;;
45011;SDS011;63444;48.148;11.542;2023-06-19T08:57:15;7.88;;;3.28;;
45011;SDS011;63444;48.148;11.542;2023-06-19T08:59:47;3.38;;;2.20;;
45011;SDS011;63444;48.148;11.542;2023-06-19T09:02:14;1.60;;;1.50;;
45011;SDS011;63444;48.148;11.542;2023-06-19T09:04:39;8.90;;;2.00;;
45011;SDS011;63444;48.148;11.542;2023-06-19T09:07:06;3.00;;;2.00;;
45011;SDS011;63444;48.148;11.542;2023-06-19T09:09:33;2.47;;;1.90;;
45011;SDS011;63444;48.148;11.542;2023-06-19T09:12:06;2.20;;;1.90;;
45011;SDS011;63444;48.148;11.542;2023-06-19T09:14:40;2.40;;;2.20;;
45011;SDS011;63444;48.148;11.542;2023-06-19T09:17:08;2.97;;;2.40;;
45011;SDS011;63444;48.148;11.542;2023-06-19T09:19:36;6.28;;;2.92;;
45011;SDS011;63444;48.148;11.542;2023-06-19T09:24:34;2.78;;;2.47;;
45011;SDS011;63444;48.148;11.542;2023-06-19T09:27:11;3.08;;;2.88;;
45011;SDS011;63444;48.148;11.542;2023-06-19T09:29:44;3.45;;;2.88;;
45011;SDS011;63444;48.148;11.542;2023-06-19T09:34:43;4.28;;;3.20;;
45011;SDS011;63444;48.148;11.542;2023-06-19T09:37:09;5.07;;;3.58;;
45011;SDS011;63444;48.148;11.542;2023-06-19T09:39:36;6.13;;;3.42;;
45011;SDS011;63444;48.148;11.542;2023-06-19T09:42:03;6.85;;;4.03;;
45011;SDS011;63444;48.148;11.542;2023-06-19T09:44:31;5.03;;;3.13;;
45011;SDS011;63444;48.148;11.542;2023-06-19T09:47:01;4.57;;;3.42;;
45011;SDS011;63444;48.148;11.542;2023-06-19T09:49:32;3.97;;;3.30;;
45011;SDS011;63444;48.148;11.542;2023-06-19T09:52:00;4.72;;;4.22;;
45011;SDS011;63444;48.148;11.542;2023-06-19T09:54:27;5.75;;;3.83;;
45011;SDS011;63444;48.148;11.542;2023-06-19T09:56:54;4.30;;;3.80;;
45011;SDS011;63444;48.148;11.542;2023-06-19T09:59:23;3.83;;;3.53;;
45011;SDS011;63444;48.148;11.542;2023-06-19T10:01:49;4.35;;;3.28;;
45011;SDS011;63444;48.148;11.542;2023-06-19T10:04:15;5.10;;;3.88;;
45011;SDS011;63444;48.148;11.542;2023-06-19T10:06:45;5.32;;;3.80;;
45011;SDS011;63444;48.148;11.542;2023-06-19T10:09:13;4.10;;;3.67;;
45011;SDS011;63444;48.148;11.542;2023-06-19T10:14:16;8.50;;;3.75;;
45011;SDS011;63444;48.148;11.542;2023-06-19T10:16:43;7.07;;;3.90;;
45011;SDS011;63444;48.148;11.542;2023-06-19T10:19:16;4.18;;;3.78;;
45011;SDS011;63444;48.148;11.542;2023-06-19T10:21:49;3.72;;;3.42;;
45011;SDS011;63444;48.148;11.542;2023-06-19T10:24:19;3.88;;;3.35;;
45011;SDS011;63444;48.148;11.542;2023-06-19T10:27:01;3.85;;;3.55;;
45011;SDS011;63444;48.148;11.542;2023-06-19T10:29:39;5.82;;;3.85;;
45011;SDS011;63444;48.148;11.542;2023-06-19T10:32:06;3.75;;;3.45;;
45011;SDS011;63444;48.148;11.542;2023-06-19T10:34:34;4.80;;;3.55;;
45011;SDS011;63444;48.148;11.542;2023-06-19T10:37:01;4.28;;;3.88;;
45011;SDS011;63444;48.148;11.542;2023-06-19T10:39:27;4.65;;;3.67;;
45011;SDS011;63444;48.148;11.542;2023-06-19T10:41:52;3.55;;;3.25;;
45011;SDS011;63444;48.148;11.542;2023-06-19T10:44:18;3.97;;;3.00;;
45011;SDS011;63444;48.148;11.542;2023-06-19T10:46:43;5.65;;;3.30;;
45011;SDS011;63444;48.148;11.542;2023-06-19T10:49:09;4.55;;;3.10;;
45011;SDS011;63444;48.148;11.542;2023-06-19T10:51:37;3.97;;;3.10;;
45011;SDS011;63444;48.148;11.542;2023-06-19T10:54:03;3.33;;;3.03;;
45011;SDS011;63444;48.148;11.542;2023-06-19T10:56:30;7.68;;;3.25;;
45011;SDS011;63444;48.148;11.542;2023-06-19T10:58:56;2.85;;;2.65;;
45011;SDS011;63444;48.148;11.542;2023-06-19T11:01:36;5.47;;;3.05;;
45011;SDS011;63444;48.148;11.542;2023-06-19T11:04:06;5.15;;;2.53;;
45011;SDS011;63444;48.148;11.542;2023-06-19T11:06:33;3.10;;;2.80;;
45011;SDS011;63444;48.148;11.542;2023-06-19T11:08:59;3.17;;;2.75;;
45011;SDS011;63444;48.148;11.542;2023-06-19T11:14:07;2.60;;;2.40;;
45011;SDS011;63444;48.148;11.542;2023-06-19T11:16:34;2.30;;;2.20;;
45011;SDS011;63444;48.148;11.542;2023-06-19T11:19:02;2.83;;;2.63;;
45011;SDS011;63444;48.148;11.542;2023-06-19T11:21:31;3.40;;;2.95;;
45011;SDS011;63444;48.148;11.542;2023-06-19T11:24:01;3.10;;;2.90;;
45011;SDS011;63444;48.148;11.542;2023-06-19T11:26:27;3.25;;;2.33;;
45011;SDS011;63444;48.148;11.542;2023-06-19T11:28:53;2.60;;;2.40;;
45011;SDS011;63444;48.148;11.542;2023-06-19T11:31:26;2.85;;;2.50;;
45011;SDS011;63444;48.148;11.542;2023-06-19T11:33:58;3.25;;;2.65;;
45011;SDS011;63444;48.148;11.542;2023-06-19T11:36:26;2.67;;;2.47;;
45011;SDS011;63444;48.148;11.542;2023-06-19T11:38:52;15.90;;;3.03;;
45011;SDS011;63444;48.148;11.542;2023-06-19T11:41:25;4.13;;;2.70;;
45011;SDS011;63444;48.148;11.542;2023-06-19T11:43:57;2.90;;;2.60;;
45011;SDS011;63444;48.148;11.542;2023-06-19T11:46:29;4.97;;;2.95;;
45011;SDS011;63444;48.148;11.542;2023-06-19T11:48:56;3.00;;;2.80;;
45011;SDS011;63444;48.148;11.542;2023-06-19T11:51:45;2.58;;;2.25;;
45011;SDS011;63444;48.148;11.542;2023-06-19T11:54:11;4.00;;;2.70;;
45011;SDS011;63444;48.148;11.542;2023-06-19T11:56:48;3.88;;;2.58;;
45011;SDS011;63444;48.148;11.542;2023-06-19T11:59:14;2.70;;;2.50;;
45011;SDS011;63444;48.148;11.542;2023-06-19T12:01:40;2.60;;;2.40;;
45011;SDS011;63444;48.148;11.542;2023-06-19T12:04:05;2.70;;;2.50;;
45011;SDS011;63444;48.148;11.542;2023-06-19T12:06:31;5.45;;;2.97;;
45011;SDS011;63444;48.148;11.542;2023-06-19T12:08:57;2.95;;;2.65;;
45011;SDS011;63444;48.148;11.542;2023-06-19T12:11:24;2.72;;;2.28;;
45011;SDS011;63444;48.148;11.542;2023-06-19T12:13:50;3.83;;;2.50;;
45011;SDS011;63444;48.148;11.542;2023-06-19T12:16:15;2.70;;;2.50;;
45011;SDS011;63444;48.148;11.542;2023-06-19T12:18:41;5.25;;;2.58;;
45011;SDS011;63444;48.148;11.542;2023-06-19T12:21:07;4.05;;;2.20;;
45011;SDS011;63444;48.148;11.542;2023-06-19T12:23:33;2.58;;;2.28;;
45011;SDS011;63444;48.148;11.542;2023-06-19T12:25:58;3.00;;;2.60;;
45011;SDS011;63444;48.148;11.542;2023-06-19T12:28:24;3.55;;;2.70;;
45011;SDS011;63444;48.148;11.542;2023-06-19T12:30:50;2.55;;;2.35;;
45011;SDS011;63444;48.148;11.542;2023-06-19T12:33:17;5.90;;;2.60;;
45011;SDS011;63444;48.148;11.542;2023-06-19T12:35:43;2.65;;;2.08;;
45011;SDS011;63444;48.148;11.542;2023-06-19T12:38:09;3.17;;;2.58;;
45011;SDS011;63444;48.148;11.542;2023-06-19T12:40:36;4.65;;;2.30;;
45011;SDS011;63444;48.148;11.542;2023-06-19T12:43:02;6.97;;;2.95;;
45011;SDS011;63444;48.148;11.542;2023-06-19T12:45:28;4.70;;;2.70;;
45011;SDS011;63444;48.148;11.542;2023-06-19T12:47:54;3.47;;;2.25;;
45011;SDS011;63444;48.148;11.542;2023-06-19T12:50:19;3.55;;;2.60;;
45011;SDS011;63444;48.148;11.542;2023-06-19T12:52:45;2.50;;;2.30;;
45011;SDS011;63444;48.148;11.542;2023-06-19T12:55:10;2.83;;;2.30;;
45011;SDS011;63444;48.148;11.542;2023-06-19T12:57:36;4.70;;;2.65;;
45011;SDS011;63444;48.148;11.542;2023-06-19T13:00:02;3.72;;;2.40;;
45011;SDS011;63444;48.148;11.542;2023-06-19T13:02:32;3.95;;;2.33;;
45011;SDS011;63444;48.148;11.542;2023-06-19T13:04:58;2.72;;;2.53;;
45011;SDS011;63444;48.148;11.542;2023-06-19T13:07:24;5.90;;;2.58;;
45011;SDS011;63444;48.148;11.542;2023-06-19T13:09:49;2.55;;;2.35;;
45011;SDS011;63444;48.148;11.542;2023-06-19T13:12:15;4.00;;;2.72;;
45011;SDS011;63444;48.148;11.542;2023-06-19T13:14:40;3.00;;;2.70;;
45011;SDS011;63444;48.148;11.542;2023-06-19T13:17:07;2.80;;;2.60;;
45011;SDS011;63444;48.148;11.542;2023-06-19T13:19:32;2.72;;;2.53;;
45011;SDS011;63444;48.148;11.542;2023-06-19T13:21:58;3.50;;;2.50;;
45011;SDS011;63444;48.148;11.542;2023-06-19T13:24:23;5.55;;;2.88;;
45011;SDS011;63444;48.148;11.542;2023-06-19T13:26:52;3.38;;;2.67;;
45011;SDS011;63444;48.148;11.542;2023-06-19T13:29:18;3.40;;;2.72;;
45011;SDS011;63444;48.148;11.542;2023-06-19T13:31:44;3.55;;;2.67;;
45011;SDS011;63444;48.148;11.542;2023-06-19T13:34:09;3.33;;;2.95;;
45011;SDS011;63444;48.148;11.542;2023-06-19T13:36:35;3.78;;;2.58;;
45011;SDS011;63444;48.148;11.542;2023-06-19T13:39:01;4.18;;;2.80;;
45011;SDS011;63444;48.148;11.542;2023-06-19T13:41:27;2.83;;;2.50;;
45011;SDS011;63444;48.148;11.542;2023-06-19T13:43:55;4.88;;;2.58;;
45011;SDS011;63444;48.148;11.542;2023-06-19T13:46:21;4.50;;;2.70;;
45011;SDS011;63444;48.148;11.542;2023-06-19T13:48:47;4.13;;;2.67;;
45011;SDS011;63444;48.148;11.542;2023-06-19T13:51:15;5.55;;;2.95;;
45011;SDS011;63444;48.148;11.542;2023-06-19T13:53:45;2.85;;;2.65;;
45011;SDS011;63444;48.148;11.542;2023-06-19T13:56:11;2.80;;;2.58;;
45011;SDS011;63444;48.148;11.542;2023-06-19T13:58:37;3.53;;;3.00;;
45011;SDS011;63444;48.148;11.542;2023-06-19T14:01:04;3.10;;;2.67;;
45011;SDS011;63444;48.148;11.542;2023-06-19T14:03:30;3.88;;;2.72;;
45011;SDS011;63444;48.148;11.542;2023-06-19T14:05:56;2.92;;;2.72;;
45011;SDS011;63444;48.148;11.542;2023-06-19T14:08:21;3.35;;;2.78;;
45011;SDS011;63444;48.148;11.542;2023-06-19T14:10:48;2.70;;;2.50;;
45011;SDS011;63444;48.148;11.542;2023-06-19T14:13:14;3.20;;;2.90;;
45011;SDS011;63444;48.148;11.542;2023-06-19T14:15:39;2.67;;;2.47;;
45011;SDS011;63444;48.148;11.542;2023-06-19T14:18:05;3.20;;;2.90;;
45011;SDS011;63444;48.148;11.542;2023-06-19T14:20:30;3.25;;;2.95;;
45011;SDS011;63444;48.148;11.542;2023-06-19T14:22:56;3.92;;;2.78;;
45011;SDS011;63444;48.148;11.542;2023-06-19T14:25:22;2.88;;;2.58;;
45011;SDS011;63444;48.148;11.542;2023-06-19T14:27:47;4.15;;;2.70;;
45011;SDS011;63444;48.148;11.542;2023-06-19T14:30:13;3.03;;;2.70;;
45011;SDS011;63444;48.148;11.542;2023-06-19T14:32:39;3.65;;;2.90;;
45011;SDS011;63444;48.148;11.542;2023-06-19T14:35:04;2.90;;;2.70;;
45011;SDS011;63444;48.148;11.542;2023-06-19T14:37:30;6.63;;;3.50;;
45011;SDS011;63444;48.148;11.542;2023-06-19T14:39:56;2.80;;;2.60;;
45011;SDS011;63444;48.148;11.542;2023-06-19T14:42:22;2.92;;;2.72;;